Time;durP1;ratioP1;P1;durP2;ratioP2;P2;SDS_P1;SDS_P2;PMS_P1;PMS_P2;Temp;Humidity;BMP_temperature;BMP_pressure;BME280_temperature;BME280_humidity;BME280_pressure;Samples;Min_cycle;Max_cycle;Signal;HPM_P1;HPM_P2
2021/09/20 00:00:17;;;;;;;13.65;6.18;;;;;;;14.88;75.18;96248.59;5054510;28;20017;-68
2021/09/20 00:02:43;;;;;;;10.35;5.63;;;;;;;14.86;75.53;96249.63;5052263;28;20040;-67
2021/09/20 00:05:09;;;;;;;7.53;5.57;;;;;;;14.84;75.35;96246.25;5054386;28;20047;-66
2021/09/20 00:07:37;;;;;;;7.50;5.35;;;;;;;14.77;75.11;96243.09;5054500;28;20017;-67
2021/09/20 00:10:05;;;;;;;11.45;5.80;;;;;;;14.74;75.61;96248.53;5054418;28;20503;-67
2021/09/20 00:12:30;;;;;;;6.95;5.65;;;;;;;14.72;76.28;96242.53;5054322;28;20125;-68
2021/09/20 00:14:56;;;;;;;11.00;5.60;;;;;;;14.67;75.48;96245.44;5042862;28;20497;-67
2021/09/20 00:17:22;;;;;;;11.02;6.13;;;;;;;14.61;75.99;96240.53;5034451;28;20021;-69
2021/09/20 00:19:47;;;;;;;8.90;5.68;;;;;;;14.56;76.33;96239.94;5034380;28;20380;-61
2021/09/20 00:22:13;;;;;;;9.02;5.45;;;;;;;14.57;75.86;96234.59;5034244;28;20479;-69
2021/09/20 00:24:38;;;;;;;13.95;5.70;;;;;;;14.58;75.67;96224.91;5034163;28;20136;-67
2021/09/20 00:27:06;;;;;;;6.82;5.63;;;;;;;14.58;76.01;96228.41;5043084;28;20493;-64
2021/09/20 00:29:32;;;;;;;9.88;5.80;;;;;;;14.58;76.22;96223.13;5053665;28;20091;-65
2021/09/20 00:31:58;;;;;;;8.70;5.47;;;;;;;14.54;76.28;96213.72;5054014;28;20029;-65
2021/09/20 00:34:23;;;;;;;8.57;5.82;;;;;;;14.57;76.73;96212.69;5053939;28;20021;-67
2021/09/20 00:36:49;;;;;;;12.57;6.45;;;;;;;14.57;76.39;96217.97;5053901;28;20017;-66
2021/09/20 00:39:14;;;;;;;11.13;5.30;;;;;;;14.57;76.04;96220.59;5052222;28;20068;-67
2021/09/20 00:41:40;;;;;;;15.30;5.30;;;;;;;14.55;75.27;96222.47;5052120;28;20021;-65
2021/09/20 00:44:06;;;;;;;10.98;6.03;;;;;;;14.48;75.06;96220.19;5053708;28;20048;-66
2021/09/20 00:46:31;;;;;;;15.30;5.85;;;;;;;14.44;75.82;96208.16;5053706;28;20021;-68
2021/09/20 00:48:57;;;;;;;12.45;6.50;;;;;;;14.41;78.56;96208.34;5053513;28;20493;-68
2021/09/20 00:51:23;;;;;;;9.02;6.97;;;;;;;14.42;78.23;96217.09;5052081;28;20032;-66
2021/09/20 00:53:48;;;;;;;10.55;6.85;;;;;;;14.34;78.39;96207.88;5053670;28;20045;-64
2021/09/20 00:56:15;;;;;;;9.48;6.15;;;;;;;14.42;78.12;96214.44;5053174;28;20120;-66
2021/09/20 00:58:40;;;;;;;11.00;5.78;;;;;;;14.40;77.51;96204.00;5053512;28;20021;-65
2021/09/20 01:01:06;;;;;;;11.68;5.70;;;;;;;14.36;76.67;96203.34;5053440;28;20108;-69
2021/09/20 01:03:33;;;;;;;8.48;5.80;;;;;;;14.34;77.11;96202.59;5051407;28;20493;-64
2021/09/20 01:05:59;;;;;;;10.43;6.72;;;;;;;14.36;77.46;96208.59;5053078;28;20071;-68
2021/09/20 01:08:26;;;;;;;7.95;5.82;;;;;;;14.37;76.95;96207.69;5052760;28;20053;-65
2021/09/20 01:10:52;;;;;;;12.88;6.45;;;;;;;14.36;76.14;96200.72;5053375;28;20024;-65
2021/09/20 01:13:17;;;;;;;7.70;5.38;;;;;;;14.34;76.24;96209.63;5053131;28;20044;-65
2021/09/20 01:15:43;;;;;;;7.97;6.00;;;;;;;14.33;76.04;96207.94;5053226;28;20066;-68
2021/09/20 01:18:08;;;;;;;10.40;6.38;;;;;;;14.31;75.88;96215.94;5051410;28;20156;-68
2021/09/20 01:20:34;;;;;;;10.77;5.97;;;;;;;14.28;76.32;96208.22;5053203;28;20033;-66
2021/09/20 01:23:03;;;;;;;10.60;5.55;;;;;;;14.28;76.18;96205.59;5053006;28;20590;-68
2021/09/20 01:25:30;;;;;;;8.70;6.22;;;;;;;14.27;76.93;96203.91;5053132;28;20024;-69
2021/09/20 01:27:56;;;;;;;7.55;5.65;;;;;;;14.26;76.23;96194.28;5053125;28;20036;-70
2021/09/20 01:30:23;;;;;;;12.75;5.50;;;;;;;14.21;76.14;96194.56;5051155;28;20060;-65
2021/09/20 01:32:49;;;;;;;13.20;5.55;;;;;;;14.15;75.75;96206.28;5052602;28;20058;-67
2021/09/20 01:35:20;;;;;;;8.38;5.93;;;;;;;14.09;75.78;96200.56;5052964;28;20029;-69
2021/09/20 01:37:46;;;;;;;10.95;6.90;;;;;;;14.02;77.85;96200.03;5053010;28;20108;-68
2021/09/20 01:40:13;;;;;;;10.32;6.65;;;;;;;14.05;78.45;96194.59;5053000;28;20475;-62
2021/09/20 01:42:39;;;;;;;14.85;5.63;;;;;;;14.07;77.81;96192.75;5051085;28;20027;-64
2021/09/20 01:45:05;;;;;;;9.30;4.93;;;;;;;14.08;76.17;96194.44;5052839;28;20037;-68
2021/09/20 01:47:31;;;;;;;6.75;5.43;;;;;;;14.05;75.79;96189.34;5052743;28;20029;-64
2021/09/20 01:49:56;;;;;;;7.80;5.03;;;;;;;14.03;76.03;96197.31;5051683;28;20013;-65
2021/09/20 01:52:22;;;;;;;7.72;5.72;;;;;;;13.95;76.18;96177.66;5052770;28;20099;-67
2021/09/20 01:54:48;;;;;;;7.38;6.10;;;;;;;14.05;75.81;96194.59;5051315;28;20461;-64
2021/09/20 01:57:14;;;;;;;8.32;5.50;;;;;;;14.00;75.37;96186.16;5052773;28;20090;-65
2021/09/20 01:59:39;;;;;;;7.93;6.43;;;;;;;13.93;77.49;96192.69;5052367;28;20031;-70
2021/09/20 02:02:05;;;;;;;9.07;5.50;;;;;;;13.98;77.88;96194.13;5052577;28;20116;-71
2021/09/20 02:04:31;;;;;;;8.65;5.57;;;;;;;14.00;77.53;96191.41;5052670;28;20060;-64
2021/09/20 02:06:56;;;;;;;6.43;5.25;;;;;;;13.99;76.36;96192.31;5052636;28;20053;-62
2021/09/20 02:09:22;;;;;;;7.85;5.25;;;;;;;13.97;76.17;96194.22;5038432;28;20101;-65
2021/09/20 02:11:47;;;;;;;10.70;6.03;;;;;;;13.98;76.53;96188.00;5036695;28;20025;-63
2021/09/20 02:14:13;;;;;;;9.68;6.05;;;;;;;13.97;76.44;96196.84;5036477;28;20058;-64
2021/09/20 02:16:39;;;;;;;7.25;5.65;;;;;;;13.94;76.58;96186.50;5036637;28;20112;-66
2021/09/20 02:19:05;;;;;;;9.05;5.35;;;;;;;13.91;76.42;96184.91;5036613;28;20450;-64
2021/09/20 02:21:31;;;;;;;8.68;5.57;;;;;;;13.94;76.15;96183.88;5037906;28;20124;-63
2021/09/20 02:23:57;;;;;;;9.65;5.68;;;;;;;13.93;76.03;96182.19;5036521;28;20112;-67
2021/09/20 02:26:23;;;;;;;7.80;5.38;;;;;;;13.93;75.78;96184.81;5036452;28;20104;-65
2021/09/20 02:28:48;;;;;;;6.28;5.30;;;;;;;13.91;75.91;96171.75;5036453;28;20480;-64
2021/09/20 02:31:14;;;;;;;8.68;5.60;;;;;;;13.92;76.09;96178.69;5036331;28;20484;-71
2021/09/20 02:33:41;;;;;;;9.57;6.32;;;;;;;13.95;76.63;96191.66;5045841;28;20035;-63
2021/09/20 02:36:08;;;;;;;7.57;6.20;;;;;;;13.92;77.73;96186.59;5055655;28;20025;-66
2021/09/20 02:38:34;;;;;;;8.10;6.00;;;;;;;13.85;77.20;96186.06;5056161;28;20021;-68
2021/09/20 02:40:59;;;;;;;10.43;6.55;;;;;;;13.82;77.42;96188.88;5056159;28;20021;-68
2021/09/20 02:43:26;;;;;;;11.27;6.22;;;;;;;13.85;77.86;96177.34;5055891;28;20035;-66
2021/09/20 02:45:52;;;;;;;10.10;6.53;;;;;;;13.89;77.18;96173.59;5045687;28;20040;-66
2021/09/20 02:48:17;;;;;;;12.73;4.97;;;;;;;13.87;75.80;96172.84;5036005;28;20025;-65
2021/09/20 02:50:43;;;;;;;9.02;5.93;;;;;;;13.81;75.98;96181.94;5036177;28;20026;-69
2021/09/20 02:53:09;;;;;;;11.05;6.35;;;;;;;13.82;76.66;96177.53;5040411;28;20387;-65
2021/09/20 02:55:35;;;;;;;6.65;5.15;;;;;;;13.82;76.29;96175.72;5055969;28;20053;-70
2021/09/20 02:58:01;;;;;;;9.57;5.97;;;;;;;13.79;76.45;96170.69;5055710;28;20025;-63
2021/09/20 03:00:26;;;;;;;9.00;6.32;;;;;;;13.75;76.26;96162.09;5054418;28;20029;-67
2021/09/20 03:02:52;;;;;;;11.25;6.20;;;;;;;13.74;77.68;96168.31;5055615;28;20486;-71
2021/09/20 03:05:18;;;;;;;7.13;5.60;;;;;;;13.73;76.20;96171.84;5039312;28;20036;-66
2021/09/20 03:07:43;;;;;;;7.80;5.53;;;;;;;13.73;77.21;96174.47;5035748;28;20024;-69
2021/09/20 03:10:09;;;;;;;8.65;5.70;;;;;;;13.73;76.69;96171.03;5035666;28;20059;-70
2021/09/20 03:12:35;;;;;;;10.55;6.75;;;;;;;13.72;76.73;96171.94;5035558;28;20026;-65
2021/09/20 03:15:01;;;;;;;8.88;6.10;;;;;;;13.74;76.88;96170.06;5051878;28;20495;-63
2021/09/20 03:17:27;;;;;;;8.27;6.32;;;;;;;13.73;77.22;96179.72;5055435;28;20075;-67
2021/09/20 03:19:53;;;;;;;8.32;6.72;;;;;;;13.71;78.72;96186.00;5054963;28;20032;-69
2021/09/20 03:22:18;;;;;;;8.13;5.18;;;;;;;13.73;77.40;96184.16;5055283;28;20017;-67
2021/09/20 03:24:44;;;;;;;14.02;5.20;;;;;;;13.74;76.94;96180.59;5053450;28;20040;-65
2021/09/20 03:27:10;;;;;;;7.68;5.82;;;;;;;13.72;77.20;96188.56;5055388;28;20025;-72
2021/09/20 03:29:35;;;;;;;8.55;5.13;;;;;;;13.71;76.38;96184.25;5055244;28;20060;-68
2021/09/20 03:32:01;;;;;;;12.43;6.57;;;;;;;13.66;76.96;96169.69;5055217;28;20021;-69
2021/09/20 03:34:27;;;;;;;15.88;5.97;;;;;;;13.66;77.13;96167.03;5047224;28;20107;-67
2021/09/20 03:36:52;;;;;;;9.40;5.30;;;;;;;13.66;77.31;96177.56;5046138;28;20112;-65
2021/09/20 03:39:18;;;;;;;8.48;5.07;;;;;;;13.63;76.94;96178.56;5055058;28;20436;-66
2021/09/20 03:41:43;;;;;;;8.48;5.57;;;;;;;13.61;76.16;96176.00;5054890;28;20029;-64
2021/09/20 03:44:09;;;;;;;8.05;5.53;;;;;;;13.59;76.32;96185.78;5049641;28;20043;-68
2021/09/20 03:46:35;;;;;;;6.97;5.30;;;;;;;13.55;76.09;96186.03;5054530;28;20057;-68
2021/09/20 03:49:00;;;;;;;7.57;5.78;;;;;;;13.47;77.51;96191.69;5054659;28;20021;-63
2021/09/20 03:51:26;;;;;;;11.50;5.57;;;;;;;13.47;77.68;96189.03;5054824;28;20053;-66
2021/09/20 03:53:51;;;;;;;10.52;5.80;;;;;;;13.46;77.46;96187.38;5054559;28;20040;-64
2021/09/20 03:56:17;;;;;;;10.48;5.10;;;;;;;13.42;77.84;96183.22;5053080;28;20029;-64
2021/09/20 03:58:42;;;;;;;6.53;5.50;;;;;;;13.45;77.38;96190.94;5054593;28;20060;-69
2021/09/20 04:01:08;;;;;;;7.90;5.97;;;;;;;13.46;77.30;96190.81;5052840;28;20108;-65
2021/09/20 04:03:34;;;;;;;7.45;5.20;;;;;;;13.45;77.35;96199.63;5034562;28;20128;-63
2021/09/20 04:05:59;;;;;;;7.95;5.35;;;;;;;13.46;76.60;96203.94;5034674;28;20468;-66
2021/09/20 04:08:28;;;;;;;11.82;6.25;;;;;;;13.46;77.49;96201.31;5034602;28;20479;-69
2021/09/20 04:10:58;;;;;;;9.00;6.40;;;;;;;13.43;77.46;96211.16;5046746;28;20025;-64
2021/09/20 04:13:25;;;;;;;7.57;5.53;;;;;;;13.48;77.06;96211.75;5054111;28;20049;-64
2021/09/20 04:15:55;;;;;;;7.68;5.45;;;;;;;13.48;77.73;96207.34;5034839;28;20028;-70
2021/09/20 04:18:27;;;;;;;6.78;5.97;;;;;;;13.49;77.98;96195.06;5034495;28;20033;-64
2021/09/20 04:20:53;;;;;;;9.40;6.60;;;;;;;13.53;77.86;96201.88;5046175;28;20084;-69
2021/09/20 04:23:21;;;;;;;11.45;6.40;;;;;;;13.60;77.76;96210.25;5054121;28;20108;-66
2021/09/20 04:25:47;;;;;;;10.25;5.40;;;;;;;13.70;77.26;96215.88;5054208;28;20485;-66
2021/09/20 04:28:14;;;;;;;15.45;5.25;;;;;;;13.78;76.58;96224.16;5053761;28;20017;-67
2021/09/20 04:30:43;;;;;;;8.10;5.35;;;;;;;13.84;76.32;96226.44;5046157;28;20613;-68
2021/09/20 04:33:11;;;;;;;13.43;5.38;;;;;;;13.92;76.10;96240.94;5053507;28;20029;-68
2021/09/20 04:35:37;;;;;;;7.93;4.90;;;;;;;13.95;75.99;96232.88;5053923;28;20537;-71
2021/09/20 04:38:02;;;;;;;9.30;5.05;;;;;;;14.00;76.17;96230.84;5053927;28;20029;-64
2021/09/20 04:40:28;;;;;;;7.20;5.50;;;;;;;14.10;76.86;96218.00;5051983;28;20025;-64
2021/09/20 04:42:54;;;;;;;9.40;5.45;;;;;;;14.22;76.86;96222.56;5033765;28;20025;-64
2021/09/20 04:45:19;;;;;;;10.20;5.45;;;;;;;14.40;76.59;96225.94;5033933;28;20030;-67
2021/09/20 04:47:46;;;;;;;15.85;4.72;;;;;;;14.84;75.87;96217.28;5040426;28;20050;-65
2021/09/20 04:50:12;;;;;;;8.50;4.13;;;;;;;15.66;73.29;96220.13;5039113;28;20029;-65
2021/09/20 04:52:37;;;;;;;11.82;4.25;;;;;;;16.55;70.27;96217.06;5033793;28;20108;-64
2021/09/20 04:55:04;;;;;;;5.15;3.80;;;;;;;17.26;67.40;96220.25;5033687;28;20104;-65
2021/09/20 04:57:30;;;;;;;9.70;4.15;;;;;;;17.70;66.09;96222.50;5033588;28;20042;-63
2021/09/20 04:59:55;;;;;;;5.90;4.15;;;;;;;18.05;66.22;96224.38;5033470;28;20495;-68
2021/09/20 05:02:21;;;;;;;4.55;3.95;;;;;;;18.16;66.03;96229.75;5033529;28;20411;-66
2021/09/20 05:04:46;;;;;;;6.03;3.00;;;;;;;18.40;65.30;96236.84;5033471;28;20427;-68
2021/09/20 05:07:12;;;;;;;5.18;3.58;;;;;;;18.73;65.34;96234.41;5033607;28;20030;-66
2021/09/20 05:09:38;;;;;;;9.32;3.70;;;;;;;19.19;64.16;96227.38;5033434;28;20033;-68
2021/09/20 05:12:04;;;;;;;5.47;3.75;;;;;;;19.59;63.41;96224.38;5033400;28;20022;-71
2021/09/20 05:14:29;;;;;;;6.30;3.50;;;;;;;19.93;63.10;96217.16;5033215;28;20503;-67
2021/09/20 05:16:58;;;;;;;4.05;2.85;;;;;;;20.24;62.08;96213.84;5033314;28;20029;-69
2021/09/20 05:19:24;;;;;;;5.57;3.17;;;;;;;20.35;61.61;96217.41;5033287;28;20037;-68
2021/09/20 05:21:49;;;;;;;7.95;2.92;;;;;;;20.31;61.85;96200.88;5033485;28;20025;-65
2021/09/20 05:24:15;;;;;;;4.70;3.22;;;;;;;20.34;62.09;96205.94;5031984;28;20052;-64
2021/09/20 05:26:41;;;;;;;6.70;3.38;;;;;;;20.43;62.14;96207.84;5032021;28;20029;-68
2021/09/20 05:29:07;;;;;;;4.68;3.63;;;;;;;20.49;62.17;96209.13;5033250;28;20021;-66
2021/09/20 05:31:32;;;;;;;5.38;3.15;;;;;;;20.49;62.37;96210.94;5033139;28;20093;-65
2021/09/20 05:33:58;;;;;;;5.45;3.03;;;;;;;20.42;62.29;96203.50;5033113;28;20037;-65
2021/09/20 05:36:24;;;;;;;4.57;3.28;;;;;;;20.30;62.56;96199.22;5033093;28;20018;-63
2021/09/20 05:38:49;;;;;;;6.47;3.83;;;;;;;20.17;63.96;96194.91;5033132;28;20025;-65
2021/09/20 05:41:15;;;;;;;7.65;4.00;;;;;;;20.18;64.38;96196.63;5032917;28;20110;-65
2021/09/20 05:43:40;;;;;;;4.28;3.83;;;;;;;20.33;64.45;96194.50;5033008;28;20061;-65
2021/09/20 05:46:06;;;;;;;6.68;3.65;;;;;;;20.55;64.38;96207.78;5033053;28;20022;-68
2021/09/20 05:48:32;;;;;;;5.40;3.60;;;;;;;20.62;64.54;96208.13;5032957;28;20021;-65
2021/09/20 05:50:58;;;;;;;4.93;3.70;;;;;;;20.70;63.99;96198.53;5032999;28;20436;-66
2021/09/20 05:53:23;;;;;;;5.32;4.18;;;;;;;20.87;62.49;96198.91;5033039;28;20034;-66
2021/09/20 05:55:49;;;;;;;7.50;3.85;;;;;;;20.98;61.57;96203.31;5033012;28;20022;-70
2021/09/20 05:58:15;;;;;;;17.75;4.70;;;;;;;21.04;61.59;96210.75;5032844;28;20025;-70
2021/09/20 06:00:40;;;;;;;7.50;4.30;;;;;;;21.04;62.04;96221.41;5032828;28;20024;-68
2021/09/20 06:03:06;;;;;;;8.88;4.68;;;;;;;21.06;62.39;96223.91;5032856;28;20044;-66
2021/09/20 06:05:37;;;;;;;8.93;4.00;;;;;;;21.04;62.29;96226.72;5032917;28;20025;-67
2021/09/20 06:08:03;;;;;;;11.43;4.63;;;;;;;21.00;62.54;96237.72;5032987;28;20034;-67
2021/09/20 06:10:28;;;;;;;10.45;4.68;;;;;;;20.94;62.92;96229.31;5032716;28;20025;-65
2021/09/20 06:12:54;;;;;;;12.10;4.32;;;;;;;20.97;62.92;96225.56;5032638;28;20029;-62
2021/09/20 06:15:19;;;;;;;6.43;4.47;;;;;;;21.01;62.62;96226.16;5032809;28;20029;-68
2021/09/20 06:17:45;;;;;;;9.20;5.03;;;;;;;20.98;63.22;96226.41;5032726;28;20025;-66
2021/09/20 06:20:11;;;;;;;5.75;4.53;;;;;;;20.89;63.38;96223.50;5032807;28;20017;-67
2021/09/20 06:22:37;;;;;;;7.25;4.60;;;;;;;20.77;63.49;96221.91;5032668;28;20112;-66
2021/09/20 06:25:04;;;;;;;5.95;4.80;;;;;;;20.69;63.80;96226.06;5032538;28;20108;-64
2021/09/20 06:27:30;;;;;;;6.85;4.53;;;;;;;20.64;65.13;96230.06;5032610;28;20025;-65
2021/09/20 06:29:55;;;;;;;7.97;5.25;;;;;;;20.60;65.24;96218.00;5032695;28;20079;-67
2021/09/20 06:32:21;;;;;;;6.20;5.15;;;;;;;20.59;65.82;96230.47;5032631;28;20029;-63
2021/09/20 06:34:47;;;;;;;10.13;4.78;;;;;;;20.63;65.84;96242.53;5032636;28;20037;-67
2021/09/20 06:37:13;;;;;;;5.45;4.95;;;;;;;20.75;64.85;96248.63;5032514;28;20018;-68
2021/09/20 06:39:39;;;;;;;6.95;5.18;;;;;;;20.76;66.66;96252.09;5032482;28;20084;-66
2021/09/20 06:42:06;;;;;;;9.88;5.28;;;;;;;20.68;66.36;96256.25;5032549;28;20037;-65
2021/09/20 06:44:33;;;;;;;9.73;5.82;;;;;;;20.57;65.64;96251.84;5032341;28;20056;-69
2021/09/20 06:46:59;;;;;;;7.75;4.60;;;;;;;20.50;65.81;96248.00;5032521;28;20063;-67
2021/09/20 06:49:24;;;;;;;7.72;4.70;;;;;;;20.50;66.25;96231.25;5032450;28;20068;-65
2021/09/20 06:51:51;;;;;;;8.90;4.93;;;;;;;20.45;66.94;96227.16;5032561;28;20028;-68
2021/09/20 06:54:21;;;;;;;7.80;5.05;;;;;;;20.45;66.97;96236.94;5034475;28;20550;-66
2021/09/20 06:56:48;;;;;;;6.95;5.65;;;;;;;20.58;68.35;96234.09;5036033;28;20029;-65
2021/09/20 06:59:13;;;;;;;5.78;4.80;;;;;;;21.04;68.98;96226.72;5035867;28;20491;-68
2021/09/20 07:01:39;;;;;;;5.63;5.05;;;;;;;21.53;66.94;96225.25;5035911;28;20030;-66
2021/09/20 07:04:05;;;;;;;7.30;4.47;;;;;;;21.73;65.09;96223.47;5035676;28;20037;-68
2021/09/20 07:06:31;;;;;;;6.28;4.25;;;;;;;21.88;65.34;96225.81;5035715;28;20040;-64
2021/09/20 07:08:57;;;;;;;9.30;4.28;;;;;;;22.04;65.28;96226.13;5035799;28;20021;-67
2021/09/20 07:11:23;;;;;;;9.43;4.22;;;;;;;22.36;64.23;96223.31;5035630;28;20013;-66
2021/09/20 07:13:49;;;;;;;9.23;4.50;;;;;;;22.69;65.94;96227.41;5035390;28;20091;-67
2021/09/20 07:16:15;;;;;;;7.93;4.13;;;;;;;22.90;63.35;96223.72;5035540;28;20419;-65
2021/09/20 07:18:41;;;;;;;3.83;3.30;;;;;;;23.23;60.40;96220.66;5035622;28;20480;-65
2021/09/20 07:21:07;;;;;;;6.93;4.43;;;;;;;23.55;60.18;96226.63;5035511;28;20029;-67
2021/09/20 07:23:32;;;;;;;6.18;3.95;;;;;;;23.74;60.46;96220.34;5035440;28;20372;-67
2021/09/20 07:25:58;;;;;;;8.73;3.95;;;;;;;23.97;59.17;96222.59;5035592;28;20033;-65
2021/09/20 07:28:24;;;;;;;6.57;4.15;;;;;;;24.03;59.80;96231.81;5035470;28;20498;-64
2021/09/20 07:30:50;;;;;;;7.70;4.40;;;;;;;23.84;59.97;96234.47;5035348;28;20100;-66
2021/09/20 07:33:15;;;;;;;8.50;5.07;;;;;;;23.88;59.37;96232.34;5035337;28;20063;-66
2021/09/20 07:35:41;;;;;;;5.82;4.10;;;;;;;24.06;58.55;96228.84;5035382;28;20107;-66
2021/09/20 07:38:07;;;;;;;5.28;3.72;;;;;;;24.25;55.56;96224.38;5034010;28;20057;-69
2021/09/20 07:40:33;;;;;;;5.10;4.15;;;;;;;24.30;57.45;96225.63;5035221;28;20021;-64
2021/09/20 07:42:59;;;;;;;5.15;4.50;;;;;;;24.56;56.62;96221.34;5035052;28;20100;-65
2021/09/20 07:45:25;;;;;;;6.65;3.78;;;;;;;24.79;54.73;96219.00;5035116;28;20030;-65
2021/09/20 07:47:52;;;;;;;6.43;3.50;;;;;;;24.94;54.30;96221.13;5034972;28;20096;-64
2021/09/20 07:50:18;;;;;;;7.25;3.08;;;;;;;25.12;51.04;96231.78;5034839;28;20392;-65
2021/09/20 07:52:45;;;;;;;6.80;3.78;;;;;;;25.35;51.66;96237.44;5034908;28;20021;-65
2021/09/20 07:55:12;;;;;;;6.30;3.45;;;;;;;25.37;50.94;96239.94;5034896;28;20391;-60
2021/09/20 07:57:38;;;;;;;4.85;3.40;;;;;;;25.55;49.22;96237.19;5034962;28;20450;-68
2021/09/20 08:00:06;;;;;;;6.95;3.60;;;;;;;25.70;50.26;96245.50;5034793;28;20057;-68
2021/09/20 08:02:31;;;;;;;5.00;3.50;;;;;;;25.78;49.57;96249.19;5034714;28;20132;-67
2021/09/20 08:04:57;;;;;;;5.97;3.63;;;;;;;25.83;50.53;96244.22;5033403;28;20436;-70
2021/09/20 08:07:22;;;;;;;4.70;3.47;;;;;;;25.80;49.50;96239.19;5033468;28;20436;-64
2021/09/20 08:09:48;;;;;;;4.22;3.33;;;;;;;25.84;48.43;96240.53;5034593;28;20041;-63
2021/09/20 08:12:14;;;;;;;8.73;3.45;;;;;;;26.02;48.79;96237.75;5034534;28;20549;-64
2021/09/20 08:14:41;;;;;;;8.10;4.00;;;;;;;25.94;48.68;96232.34;5034282;28;20045;-65
2021/09/20 08:17:07;;;;;;;3.88;3.03;;;;;;;25.91;48.60;96232.69;5034481;28;20382;-67
2021/09/20 08:19:34;;;;;;;6.25;3.55;;;;;;;25.92;49.35;96234.38;5034526;28;20028;-68
2021/09/20 08:22:00;;;;;;;6.72;3.72;;;;;;;25.89;49.70;96248.94;5034393;28;20108;-69
2021/09/20 08:24:25;;;;;;;6.78;3.58;;;;;;;25.84;49.22;96240.53;5034195;28;20160;-66
2021/09/20 08:26:51;;;;;;;8.00;3.90;;;;;;;25.90;48.99;96242.56;5034293;28;20360;-65
2021/09/20 08:29:17;;;;;;;10.80;4.15;;;;;;;25.83;49.43;96245.03;5034179;28;20463;-66
2021/09/20 08:31:43;;;;;;;7.65;4.05;;;;;;;25.77;49.58;96253.75;5034162;28;20109;-64
2021/09/20 08:34:09;;;;;;;9.48;5.32;;;;;;;25.65;49.84;96241.63;5034128;28;20032;-64
2021/09/20 08:36:34;;;;;;;11.25;5.72;;;;;;;25.51;49.83;96240.34;5033976;28;20018;-61
2021/09/20 08:39:00;;;;;;;15.95;5.50;;;;;;;25.42;50.20;96247.50;5033964;28;20390;-64
2021/09/20 08:41:26;;;;;;;10.55;4.63;;;;;;;25.40;49.75;96236.97;5033845;28;20030;-65
2021/09/20 08:43:52;;;;;;;7.32;4.57;;;;;;;25.29;49.49;96231.88;5032614;28;20029;-63
2021/09/20 08:46:17;;;;;;;12.38;5.72;;;;;;;25.29;49.66;96227.38;5033903;28;20029;-66
2021/09/20 08:48:45;;;;;;;9.07;4.10;;;;;;;25.15;49.33;96225.28;5033831;28;20079;-67
2021/09/20 08:51:16;;;;;;;11.73;4.50;;;;;;;25.24;49.64;96208.28;5033886;28;20018;-66
2021/09/20 08:53:42;;;;;;;12.85;4.65;;;;;;;25.40;51.85;96212.06;5033908;28;20104;-66
2021/09/20 08:56:09;;;;;;;11.40;4.30;;;;;;;25.64;49.53;96205.16;5033835;28;20026;-62
2021/09/20 08:58:35;;;;;;;10.73;4.28;;;;;;;25.79;48.43;96192.81;5033739;28;20028;-69
2021/09/20 09:01:01;;;;;;;8.88;4.05;;;;;;;25.97;47.19;96195.38;5033753;28;20060;-63
2021/09/20 09:03:28;;;;;;;8.98;4.40;;;;;;;26.09;46.30;96200.41;5033468;28;20049;-62
2021/09/20 09:05:54;;;;;;;13.35;4.47;;;;;;;26.04;46.80;96192.88;5033584;28;20100;-67
2021/09/20 09:08:45;;;;;;;8.40;4.15;;;;;;;25.97;47.39;96191.84;5033540;28;20476;-66
2021/09/20 09:11:17;;;;;;;6.80;4.03;;;;;;;25.95;47.77;96189.31;5033314;28;20083;-69
2021/09/20 09:13:46;;;;;;;12.65;4.20;;;;;;;25.92;48.70;96186.16;5033286;28;20044;-63
2021/09/20 09:16:23;;;;;;;9.73;4.20;;;;;;;26.14;48.78;96187.38;5033096;28;20022;-64
2021/09/20 09:19:03;;;;;;;7.68;3.90;;;;;;;26.39;47.87;96190.09;5033334;28;20022;-65
2021/09/20 09:21:32;;;;;;;8.50;4.07;;;;;;;26.45;45.18;96183.22;5033411;28;20083;-64
2021/09/20 09:24:10;;;;;;;7.53;4.07;;;;;;;26.49;45.96;96185.41;5033238;28;20083;-64
2021/09/20 09:26:37;;;;;;;6.82;3.33;;;;;;;26.62;45.30;96176.88;5033259;28;20033;-66
2021/09/20 09:29:07;;;;;;;6.43;3.40;;;;;;;26.59;43.07;96177.19;5033213;28;20072;-65
2021/09/20 09:31:37;;;;;;;8.73;3.58;;;;;;;26.49;43.20;96173.84;5033166;28;20037;-66
2021/09/20 09:34:21;;;;;;;6.60;3.50;;;;;;;26.57;42.93;96170.31;5033303;28;20395;-62
2021/09/20 09:36:49;;;;;;;8.18;3.70;;;;;;;26.58;45.05;96170.13;5033155;28;20041;-68
2021/09/20 09:39:28;;;;;;;10.40;3.70;;;;;;;26.87;46.64;96171.47;5033139;28;20041;-64
2021/09/20 09:41:55;;;;;;;11.63;3.75;;;;;;;26.99;43.73;96171.13;5033096;28;20095;-67
2021/09/20 09:44:29;;;;;;;9.82;3.17;;;;;;;27.07;44.54;96163.06;5033024;28;20375;-62
2021/09/20 09:46:56;;;;;;;16.95;4.07;;;;;;;27.07;42.94;96172.94;5033088;28;20042;-66
2021/09/20 09:49:23;;;;;;;9.90;4.05;;;;;;;26.83;41.54;96156.72;5032979;28;20025;-66
2021/09/20 09:52:04;;;;;;;7.40;3.50;;;;;;;26.67;46.14;96162.09;5033138;28;20356;-66
2021/09/20 09:54:33;;;;;;;12.25;4.07;;;;;;;26.75;46.98;96167.44;5032906;28;20026;-67
2021/09/20 09:57:21;;;;;;;9.77;4.22;;;;;;;27.04;44.57;96166.09;5032871;28;20032;-66
2021/09/20 10:00:06;;;;;;;10.05;4.43;;;;;;;27.12;43.71;96167.91;5033027;28;20057;-66
2021/09/20 10:02:33;;;;;;;6.28;3.60;;;;;;;27.17;41.56;96168.22;5032868;28;20470;-64
2021/09/20 10:05:23;;;;;;;7.80;3.80;;;;;;;27.33;42.29;96163.81;5032764;28;20022;-68
2021/09/20 10:07:51;;;;;;;11.15;3.92;;;;;;;27.35;41.65;96161.78;5032854;28;20368;-67
2021/09/20 10:10:24;;;;;;;9.95;3.70;;;;;;;27.38;43.99;96150.69;5032877;28;20021;-65
2021/09/20 10:12:52;;;;;;;10.35;3.75;;;;;;;27.50;43.30;96140.41;5032792;28;20033;-63
2021/09/20 10:15:19;;;;;;;8.68;3.15;;;;;;;27.73;41.13;96151.25;5032881;28;20038;-66
2021/09/20 10:17:46;;;;;;;12.75;4.00;;;;;;;27.80;41.20;96132.56;5032786;28;20021;-64
2021/09/20 10:20:15;;;;;;;11.68;4.28;;;;;;;27.84;41.96;96133.06;5032688;28;20116;-64
2021/09/20 10:22:41;;;;;;;4.93;3.17;;;;;;;27.68;41.47;96133.97;5032884;28;20026;-63
2021/09/20 10:25:09;;;;;;;5.82;3.25;;;;;;;27.37;42.61;96136.47;5032612;28;20021;-62
2021/09/20 10:27:35;;;;;;;6.68;3.45;;;;;;;27.58;43.53;96131.47;5032609;28;20025;-67
2021/09/20 10:30:09;;;;;;;12.25;4.25;;;;;;;27.71;42.91;96128.25;5035974;28;20048;-65
2021/09/20 10:32:36;;;;;;;7.13;3.75;;;;;;;27.73;43.14;96124.38;5036464;28;20423;-67
2021/09/20 10:35:22;;;;;;;7.50;3.72;;;;;;;27.83;44.69;96128.69;5036439;28;20380;-67
2021/09/20 10:37:48;;;;;;;10.25;3.85;;;;;;;27.92;44.75;96119.56;5036418;28;20064;-64
2021/09/20 10:40:14;;;;;;;6.22;3.25;;;;;;;27.99;42.09;96117.00;5036420;28;20069;-65
2021/09/20 10:42:46;;;;;;;13.00;3.90;;;;;;;28.05;42.36;96113.56;5036293;28;20056;-67
2021/09/20 10:45:36;;;;;;;9.88;3.85;;;;;;;28.13;41.50;96108.16;5036371;28;20025;-66
2021/09/20 10:48:16;;;;;;;10.63;3.63;;;;;;;28.25;42.55;96107.72;5036242;28;20064;-67
2021/09/20 10:50:57;;;;;;;7.05;3.38;;;;;;;28.22;41.24;96100.00;5036117;28;20135;-65
2021/09/20 10:53:32;;;;;;;5.60;3.50;;;;;;;28.32;42.22;96103.31;5036152;28;20033;-65
2021/09/20 10:56:04;;;;;;;5.65;3.50;;;;;;;28.42;41.73;96104.91;5035957;28;20029;-65
2021/09/20 10:58:36;;;;;;;6.80;3.47;;;;;;;28.53;39.46;96100.97;5035938;28;20156;-64
2021/09/20 11:01:10;;;;;;;6.20;3.00;;;;;;;28.41;39.71;96098.69;5036020;28;20423;-65
2021/09/20 11:03:52;;;;;;;5.03;3.30;;;;;;;28.18;40.48;96098.72;5035827;28;20032;-66
2021/09/20 11:06:35;;;;;;;7.57;3.75;;;;;;;27.98;40.99;96091.13;5035829;28;20112;-68
2021/09/20 11:09:02;;;;;;;7.22;3.75;;;;;;;27.81;40.68;96088.56;5035799;28;20112;-63
2021/09/20 11:14:05;;;;;;;8.98;3.33;;;;;;;27.88;41.23;96086.00;5035531;28;20060;-67
2021/09/20 11:16:57;;;;;;;15.02;3.30;;;;;;;27.98;41.93;96085.75;5035625;28;20116;-66
2021/09/20 11:19:28;;;;;;;14.75;3.83;;;;;;;28.15;41.35;96086.47;5035510;28;20383;-67
2021/09/20 11:22:04;;;;;;;7.32;3.70;;;;;;;28.21;41.13;96083.06;5035582;28;20033;-65
2021/09/20 11:24:34;;;;;;;12.43;3.50;;;;;;;28.06;40.80;96077.66;5035365;28;20059;-63
2021/09/20 11:27:01;;;;;;;11.00;4.22;;;;;;;27.91;42.27;96082.13;5035408;28;20476;-65
2021/09/20 11:29:28;;;;;;;9.52;3.70;;;;;;;27.38;40.79;96073.69;5035436;28;20025;-66
2021/09/20 11:31:55;;;;;;;7.28;3.75;;;;;;;27.40;41.58;96081.56;5035458;28;20029;-66
2021/09/20 11:34:30;;;;;;;5.95;3.65;;;;;;;27.39;43.22;96079.88;5035303;28;20096;-69